sensor_id;sensor_type;location;lat;lon;timestamp;pressure;altitude;pressure_sealevel;temperature;humidity
7297;BME280;40758;54.038;11.684;2022-10-28T00:00:06;101660.34;;;13.68;100.00
7297;BME280;40758;54.038;11.684;2022-10-28T00:02:36;101654.31;;;13.76;100.00
7297;BME280;40758;54.038;11.684;2022-10-28T00:05:09;101659.22;;;13.71;100.00
7297;BME280;40758;54.038;11.684;2022-10-28T00:07:38;101664.16;;;13.66;100.00
7297;BME280;40758;54.038;11.684;2022-10-28T00:10:08;101663.28;;;13.65;100.00
7297;BME280;40758;54.038;11.684;2022-10-28T00:12:37;101663.44;;;13.64;100.00
7297;BME280;40758;54.038;11.684;2022-10-28T00:15:07;101663.63;;;13.72;100.00
7297;BME280;40758;54.038;11.684;2022-10-28T00:17:37;101670.75;;;13.73;100.00
7297;BME280;40758;54.038;11.684;2022-10-28T00:20:09;101667.94;;;13.74;100.00
7297;BME280;40758;54.038;11.684;2022-10-28T00:22:38;101686.75;;;13.76;100.00
7297;BME280;40758;54.038;11.684;2022-10-28T00:25:08;101685.59;;;13.78;100.00
7297;BME280;40758;54.038;11.684;2022-10-28T00:27:37;101679.59;;;13.86;100.00
7297;BME280;40758;54.038;11.684;2022-10-28T00:30:07;101668.91;;;13.85;100.00
7297;BME280;40758;54.038;11.684;2022-10-28T00:32:37;101671.34;;;13.99;100.00
7297;BME280;40758;54.038;11.684;2022-10-28T00:35:08;101671.22;;;13.89;100.00
7297;BME280;40758;54.038;11.684;2022-10-28T00:37:37;101666.19;;;13.85;100.00
7297;BME280;40758;54.038;11.684;2022-10-28T00:40:08;101671.13;;;13.80;100.00
7297;BME280;40758;54.038;11.684;2022-10-28T00:42:37;101671.00;;;13.81;100.00
7297;BME280;40758;54.038;11.684;2022-10-28T00:45:08;101667.19;;;13.84;100.00
7297;BME280;40758;54.038;11.684;2022-10-28T00:47:44;101666.19;;;13.85;100.00
7297;BME280;40758;54.038;11.684;2022-10-28T00:50:38;101668.91;;;13.85;100.00
7297;BME280;40758;54.038;11.684;2022-10-28T00:53:16;101668.53;;;13.78;100.00
7297;BME280;40758;54.038;11.684;2022-10-28T00:55:47;101651.47;;;13.77;100.00
7297;BME280;40758;54.038;11.684;2022-10-28T00:58:20;101664.00;;;13.78;100.00
7297;BME280;40758;54.038;11.684;2022-10-28T01:00:50;101666.34;;;13.72;100.00
7297;BME280;40758;54.038;11.684;2022-10-28T01:03:19;101655.94;;;13.56;100.00
7297;BME280;40758;54.038;11.684;2022-10-28T01:05:50;101660.97;;;13.50;100.00
7297;BME280;40758;54.038;11.684;2022-10-28T01:08:20;101660.22;;;13.70;100.00
7297;BME280;40758;54.038;11.684;2022-10-28T01:11:26;101658.50;;;13.69;100.00
7297;BME280;40758;54.038;11.684;2022-10-28T01:14:31;101649.75;;;13.76;100.00
7297;BME280;40758;54.038;11.684;2022-10-28T01:17:32;101648.56;;;13.69;100.00
7297;BME280;40758;54.038;11.684;2022-10-28T01:27:00;101653.34;;;13.55;100.00
7297;BME280;40758;54.038;11.684;2022-10-28T01:30:06;101661.22;;;13.47;100.00
7297;BME280;40758;54.038;11.684;2022-10-28T01:33:00;101663.91;;;13.47;100.00
7297;BME280;40758;54.038;11.684;2022-10-28T01:35:42;101664.88;;;13.46;100.00
7297;BME280;40758;54.038;11.684;2022-10-28T01:38:27;101659.13;;;13.50;100.00
7297;BME280;40758;54.038;11.684;2022-10-28T01:41:08;101665.63;;;13.48;100.00
7297;BME280;40758;54.038;11.684;2022-10-28T01:43:47;101662.81;;;13.49;100.00
7297;BME280;40758;54.038;11.684;2022-10-28T01:46:27;101660.50;;;13.45;100.00
7297;BME280;40758;54.038;11.684;2022-10-28T01:49:07;101672.16;;;13.45;100.00
7297;BME280;40758;54.038;11.684;2022-10-28T01:51:43;101663.06;;;13.35;100.00
7297;BME280;40758;54.038;11.684;2022-10-28T01:54:18;101668.06;;;13.40;100.00
7297;BME280;40758;54.038;11.684;2022-10-28T01:56:50;101676.44;;;13.36;100.00
7297;BME280;40758;54.038;11.684;2022-10-28T01:59:21;101661.22;;;13.35;100.00
7297;BME280;40758;54.038;11.684;2022-10-28T02:01:52;101670.44;;;13.33;100.00
7297;BME280;40758;54.038;11.684;2022-10-28T02:04:23;101663.91;;;13.24;100.00
7297;BME280;40758;54.038;11.684;2022-10-28T02:06:55;101664.78;;;13.25;100.00
7297;BME280;40758;54.038;11.684;2022-10-28T02:09:53;101660.00;;;13.28;100.00
7297;BME280;40758;54.038;11.684;2022-10-28T02:12:27;101659.75;;;13.31;100.00
7297;BME280;40758;54.038;11.684;2022-10-28T02:15:31;101657.06;;;13.43;100.00
7297;BME280;40758;54.038;11.684;2022-10-28T02:18:22;101646.75;;;13.36;100.00
7297;BME280;40758;54.038;11.684;2022-10-28T02:21:01;101646.97;;;13.33;100.00
7297;BME280;40758;54.038;11.684;2022-10-28T02:23:42;101648.47;;;13.38;100.00
7297;BME280;40758;54.038;11.684;2022-10-28T02:26:30;101649.81;;;13.43;100.00
7297;BME280;40758;54.038;11.684;2022-10-28T02:29:10;101653.13;;;13.35;100.00
7297;BME280;40758;54.038;11.684;2022-10-28T02:31:48;101652.38;;;13.33;100.00
7297;BME280;40758;54.038;11.684;2022-10-28T02:34:24;101654.97;;;13.35;100.00
7297;BME280;40758;54.038;11.684;2022-10-28T02:37:00;101656.31;;;13.29;100.00
7297;BME280;40758;54.038;11.684;2022-10-28T02:39:37;101652.16;;;13.25;100.00
7297;BME280;40758;54.038;11.684;2022-10-28T02:42:15;101646.50;;;13.17;100.00
7297;BME280;40758;54.038;11.684;2022-10-28T02:44:51;101644.38;;;13.10;100.00
7297;BME280;40758;54.038;11.684;2022-10-28T02:47:26;101651.59;;;13.09;100.00
7297;BME280;40758;54.038;11.684;2022-10-28T02:50:01;101656.03;;;13.10;100.00
7297;BME280;40758;54.038;11.684;2022-10-28T02:52:34;101659.50;;;13.12;100.00
7297;BME280;40758;54.038;11.684;2022-10-28T02:55:05;101652.59;;;13.08;100.00
7297;BME280;40758;54.038;11.684;2022-10-28T02:57:39;101658.53;;;13.13;100.00
7297;BME280;40758;54.038;11.684;2022-10-28T03:00:17;101651.66;;;13.20;100.00
7297;BME280;40758;54.038;11.684;2022-10-28T03:02:47;101654.38;;;13.20;100.00
7297;BME280;40758;54.038;11.684;2022-10-28T03:05:16;101652.38;;;13.22;100.00
7297;BME280;40758;54.038;11.684;2022-10-28T03:07:48;101641.84;;;13.19;100.00
7297;BME280;40758;54.038;11.684;2022-10-28T03:10:17;101648.22;;;13.29;100.00
7297;BME280;40758;54.038;11.684;2022-10-28T03:12:46;101648.09;;;13.31;100.00
7297;BME280;40758;54.038;11.684;2022-10-28T03:15:15;101655.31;;;13.53;100.00
7297;BME280;40758;54.038;11.684;2022-10-28T03:17:44;101649.19;;;13.51;100.00
7297;BME280;40758;54.038;11.684;2022-10-28T03:20:14;101655.44;;;13.40;100.00
7297;BME280;40758;54.038;11.684;2022-10-28T03:22:43;101638.16;;;13.31;100.00
7297;BME280;40758;54.038;11.684;2022-10-28T03:25:13;101630.31;;;13.28;100.00
7297;BME280;40758;54.038;11.684;2022-10-28T03:27:42;101631.91;;;13.31;100.00
7297;BME280;40758;54.038;11.684;2022-10-28T03:30:12;101640.13;;;13.29;100.00
7297;BME280;40758;54.038;11.684;2022-10-28T03:32:41;101635.22;;;13.23;100.00
7297;BME280;40758;54.038;11.684;2022-10-28T03:35:10;101626.75;;;13.17;100.00
7297;BME280;40758;54.038;11.684;2022-10-28T03:37:41;101638.88;;;13.22;100.00
7297;BME280;40758;54.038;11.684;2022-10-28T03:40:13;101626.63;;;13.41;100.00
7297;BME280;40758;54.038;11.684;2022-10-28T03:42:42;101628.84;;;13.35;100.00
7297;BME280;40758;54.038;11.684;2022-10-28T03:45:11;101631.28;;;13.27;100.00
7297;BME280;40758;54.038;11.684;2022-10-28T03:47:40;101638.66;;;13.25;100.00
7297;BME280;40758;54.038;11.684;2022-10-28T03:50:09;101633.50;;;13.22;100.00
7297;BME280;40758;54.038;11.684;2022-10-28T03:52:39;101623.19;;;13.16;100.00
7297;BME280;40758;54.038;11.684;2022-10-28T03:55:08;101629.03;;;13.10;100.00
7297;BME280;40758;54.038;11.684;2022-10-28T03:57:41;101626.34;;;12.99;100.00
7297;BME280;40758;54.038;11.684;2022-10-28T04:00:13;101620.56;;;12.92;100.00
7297;BME280;40758;54.038;11.684;2022-10-28T04:02:48;101614.31;;;12.92;100.00
7297;BME280;40758;54.038;11.684;2022-10-28T04:05:19;101615.81;;;12.96;100.00
7297;BME280;40758;54.038;11.684;2022-10-28T04:07:48;101620.09;;;12.98;100.00
7297;BME280;40758;54.038;11.684;2022-10-28T04:10:17;101629.31;;;13.07;100.00
7297;BME280;40758;54.038;11.684;2022-10-28T04:12:49;101636.31;;;13.21;100.00
7297;BME280;40758;54.038;11.684;2022-10-28T04:15:19;101618.78;;;13.15;100.00
7297;BME280;40758;54.038;11.684;2022-10-28T04:17:48;101625.78;;;13.18;100.00
7297;BME280;40758;54.038;11.684;2022-10-28T04:20:17;101623.56;;;13.23;100.00
7297;BME280;40758;54.038;11.684;2022-10-28T04:22:47;101627.13;;;13.23;100.00
7297;BME280;40758;54.038;11.684;2022-10-28T04:25:24;101614.22;;;13.27;100.00
7297;BME280;40758;54.038;11.684;2022-10-28T04:27:55;101622.22;;;13.28;100.00
7297;BME280;40758;54.038;11.684;2022-10-28T04:30:24;101612.16;;;13.30;100.00
7297;BME280;40758;54.038;11.684;2022-10-28T04:32:53;101607.50;;;13.32;100.00
7297;BME280;40758;54.038;11.684;2022-10-28T04:35:23;101601.25;;;13.32;100.00
7297;BME280;40758;54.038;11.684;2022-10-28T04:37:52;101593.75;;;13.24;100.00
7297;BME280;40758;54.038;11.684;2022-10-28T04:40:22;101597.94;;;13.17;100.00
7297;BME280;40758;54.038;11.684;2022-10-28T04:42:51;101600.16;;;13.12;100.00
7297;BME280;40758;54.038;11.684;2022-10-28T04:45:27;101608.44;;;13.09;100.00
7297;BME280;40758;54.038;11.684;2022-10-28T04:47:58;101598.13;;;13.03;100.00
7297;BME280;40758;54.038;11.684;2022-10-28T04:50:32;101594.09;;;12.97;100.00
7297;BME280;40758;54.038;11.684;2022-10-28T04:53:01;101594.69;;;12.90;100.00
7297;BME280;40758;54.038;11.684;2022-10-28T04:55:30;101593.47;;;12.83;100.00
7297;BME280;40758;54.038;11.684;2022-10-28T04:58:00;101594.84;;;12.77;100.00
7297;BME280;40758;54.038;11.684;2022-10-28T05:00:31;101586.09;;;12.74;100.00
7297;BME280;40758;54.038;11.684;2022-10-28T05:03:01;101579.47;;;12.67;100.00
7297;BME280;40758;54.038;11.684;2022-10-28T05:05:31;101586.97;;;12.63;100.00
7297;BME280;40758;54.038;11.684;2022-10-28T05:08:00;101578.97;;;12.62;100.00
7297;BME280;40758;54.038;11.684;2022-10-28T05:10:29;101570.16;;;12.60;100.00
7297;BME280;40758;54.038;11.684;2022-10-28T05:12:58;101577.03;;;12.52;100.00
7297;BME280;40758;54.038;11.684;2022-10-28T05:15:27;101566.34;;;12.51;100.00
7297;BME280;40758;54.038;11.684;2022-10-28T05:17:59;101567.53;;;12.47;100.00
7297;BME280;40758;54.038;11.684;2022-10-28T05:20:28;101565.97;;;12.44;100.00
7297;BME280;40758;54.038;11.684;2022-10-28T05:22:59;101563.50;;;12.41;100.00
7297;BME280;40758;54.038;11.684;2022-10-28T05:25:29;101567.41;;;12.26;100.00
7297;BME280;40758;54.038;11.684;2022-10-28T05:27:59;101566.50;;;12.14;100.00
7297;BME280;40758;54.038;11.684;2022-10-28T05:30:28;101571.59;;;12.06;100.00
7297;BME280;40758;54.038;11.684;2022-10-28T05:33:02;101576.38;;;12.03;100.00
7297;BME280;40758;54.038;11.684;2022-10-28T05:35:32;101582.84;;;12.00;100.00
7297;BME280;40758;54.038;11.684;2022-10-28T05:38:02;101573.69;;;12.03;100.00
7297;BME280;40758;54.038;11.684;2022-10-28T05:40:31;101579.03;;;12.27;100.00
7297;BME280;40758;54.038;11.684;2022-10-28T05:43:01;101573.56;;;12.39;100.00
7297;BME280;40758;54.038;11.684;2022-10-28T05:45:44;101578.47;;;12.45;100.00
7297;BME280;40758;54.038;11.684;2022-10-28T05:48:28;101580.69;;;12.51;100.00
7297;BME280;40758;54.038;11.684;2022-10-28T05:50:59;101578.59;;;12.55;100.00
7297;BME280;40758;54.038;11.684;2022-10-28T05:53:31;101591.00;;;12.57;100.00
7297;BME280;40758;54.038;11.684;2022-10-28T05:56:03;101597.09;;;12.60;100.00
7297;BME280;40758;54.038;11.684;2022-10-28T05:58:35;101594.44;;;12.71;100.00
7297;BME280;40758;54.038;11.684;2022-10-28T06:01:07;101587.72;;;12.76;100.00
7297;BME280;40758;54.038;11.684;2022-10-28T06:03:40;101589.06;;;12.82;100.00
7297;BME280;40758;54.038;11.684;2022-10-28T06:06:13;101576.19;;;12.85;100.00
7297;BME280;40758;54.038;11.684;2022-10-28T06:08:45;101568.84;;;12.87;100.00
7297;BME280;40758;54.038;11.684;2022-10-28T06:11:15;101563.44;;;12.87;100.00
7297;BME280;40758;54.038;11.684;2022-10-28T06:13:54;101552.53;;;12.89;100.00
7297;BME280;40758;54.038;11.684;2022-10-28T06:16:38;101564.78;;;12.93;100.00
7297;BME280;40758;54.038;11.684;2022-10-28T06:19:25;101563.44;;;12.87;100.00
7297;BME280;40758;54.038;11.684;2022-10-28T06:22:00;101566.91;;;12.89;100.00
7297;BME280;40758;54.038;11.684;2022-10-28T06:24:31;101567.00;;;12.99;100.00
7297;BME280;40758;54.038;11.684;2022-10-28T06:27:03;101567.38;;;13.06;100.00
7297;BME280;40758;54.038;11.684;2022-10-28T06:29:37;101583.19;;;13.21;100.00
7297;BME280;40758;54.038;11.684;2022-10-28T06:32:09;101598.19;;;13.25;100.00
7297;BME280;40758;54.038;11.684;2022-10-28T06:34:44;101593.63;;;13.37;100.00
7297;BME280;40758;54.038;11.684;2022-10-28T06:37:17;101602.69;;;13.36;100.00
7297;BME280;40758;54.038;11.684;2022-10-28T06:39:51;101599.16;;;13.35;100.00
7297;BME280;40758;54.038;11.684;2022-10-28T06:42:23;101595.72;;;13.45;100.00
7297;BME280;40758;54.038;11.684;2022-10-28T06:45:01;101601.47;;;13.40;100.00
7297;BME280;40758;54.038;11.684;2022-10-28T06:47:59;101601.97;;;13.45;100.00
7297;BME280;40758;54.038;11.684;2022-10-28T06:50:35;101600.97;;;13.46;100.00
7297;BME280;40758;54.038;11.684;2022-10-28T06:53:05;101604.16;;;13.51;100.00
7297;BME280;40758;54.038;11.684;2022-10-28T06:55:34;101601.31;;;13.53;100.00
7297;BME280;40758;54.038;11.684;2022-10-28T06:58:04;101599.59;;;13.63;100.00
7297;BME280;40758;54.038;11.684;2022-10-28T07:00:33;101595.94;;;13.64;100.00
7297;BME280;40758;54.038;11.684;2022-10-28T07:03:05;101591.97;;;13.68;100.00
7297;BME280;40758;54.038;11.684;2022-10-28T07:05:36;101596.59;;;13.77;100.00
7297;BME280;40758;54.038;11.684;2022-10-28T07:08:05;101594.41;;;13.82;100.00
7297;BME280;40758;54.038;11.684;2022-10-28T07:10:35;101593.09;;;13.97;100.00
7297;BME280;40758;54.038;11.684;2022-10-28T07:13:04;101591.31;;;14.18;100.00
7297;BME280;40758;54.038;11.684;2022-10-28T07:15:33;101585.56;;;14.33;100.00
7297;BME280;40758;54.038;11.684;2022-10-28T07:18:03;101587.75;;;14.50;100.00
7297;BME280;40758;54.038;11.684;2022-10-28T07:20:32;101582.50;;;14.58;100.00
7297;BME280;40758;54.038;11.684;2022-10-28T07:23:03;101581.63;;;14.78;100.00
7297;BME280;40758;54.038;11.684;2022-10-28T07:25:32;101569.53;;;14.82;100.00
7297;BME280;40758;54.038;11.684;2022-10-28T07:28:03;101565.06;;;14.92;100.00
7297;BME280;40758;54.038;11.684;2022-10-28T07:30:32;101569.16;;;15.17;100.00
7297;BME280;40758;54.038;11.684;2022-10-28T07:33:04;101563.28;;;15.52;100.00
7297;BME280;40758;54.038;11.684;2022-10-28T07:35:33;101569.94;;;15.98;100.00
7297;BME280;40758;54.038;11.684;2022-10-28T07:38:05;101560.63;;;16.39;100.00
7297;BME280;40758;54.038;11.684;2022-10-28T07:40:34;101546.03;;;16.59;100.00
7297;BME280;40758;54.038;11.684;2022-10-28T07:43:04;101550.00;;;17.11;100.00
7297;BME280;40758;54.038;11.684;2022-10-28T07:45:34;101544.69;;;16.82;100.00
7297;BME280;40758;54.038;11.684;2022-10-28T07:48:04;101541.53;;;16.87;100.00
7297;BME280;40758;54.038;11.684;2022-10-28T07:50:34;101549.16;;;17.38;100.00
7297;BME280;40758;54.038;11.684;2022-10-28T07:53:04;101544.63;;;17.02;100.00
7297;BME280;40758;54.038;11.684;2022-10-28T07:55:34;101550.59;;;17.05;100.00
7297;BME280;40758;54.038;11.684;2022-10-28T07:58:03;101542.44;;;16.78;100.00
7297;BME280;40758;54.038;11.684;2022-10-28T08:00:32;101534.03;;;16.62;100.00
7297;BME280;40758;54.038;11.684;2022-10-28T08:03:01;101537.00;;;16.78;100.00
7297;BME280;40758;54.038;11.684;2022-10-28T08:05:33;101527.03;;;16.59;100.00
7297;BME280;40758;54.038;11.684;2022-10-28T08:08:04;101527.66;;;16.34;100.00
7297;BME280;40758;54.038;11.684;2022-10-28T08:10:34;101529.22;;;16.27;100.00
7297;BME280;40758;54.038;11.684;2022-10-28T08:13:03;101520.97;;;16.28;100.00
7297;BME280;40758;54.038;11.684;2022-10-28T08:15:33;101526.06;;;16.31;100.00
7297;BME280;40758;54.038;11.684;2022-10-28T08:18:03;101513.72;;;16.09;100.00
7297;BME280;40758;54.038;11.684;2022-10-28T08:20:32;101513.50;;;16.30;100.00
7297;BME280;40758;54.038;11.684;2022-10-28T08:23:01;101515.41;;;16.20;100.00
7297;BME280;40758;54.038;11.684;2022-10-28T08:25:36;101508.56;;;16.16;100.00
7297;BME280;40758;54.038;11.684;2022-10-28T08:28:05;101507.00;;;16.04;100.00
7297;BME280;40758;54.038;11.684;2022-10-28T08:30:34;101507.13;;;16.12;100.00
7297;BME280;40758;54.038;11.684;2022-10-28T08:33:23;101505.72;;;16.08;100.00
7297;BME280;40758;54.038;11.684;2022-10-28T08:35:52;101508.28;;;16.09;100.00
7297;BME280;40758;54.038;11.684;2022-10-28T08:38:21;101502.00;;;15.99;100.00
7297;BME280;40758;54.038;11.684;2022-10-28T08:41:01;101509.41;;;16.26;100.00
7297;BME280;40758;54.038;11.684;2022-10-28T08:43:48;101502.19;;;16.64;100.00
7297;BME280;40758;54.038;11.684;2022-10-28T08:46:44;101489.16;;;17.04;100.00
7297;BME280;40758;54.038;11.684;2022-10-28T08:49:20;101484.72;;;17.30;100.00
7297;BME280;40758;54.038;11.684;2022-10-28T08:51:57;101489.00;;;17.33;100.00
7297;BME280;40758;54.038;11.684;2022-10-28T08:54:38;101477.06;;;17.44;100.00
7297;BME280;40758;54.038;11.684;2022-10-28T08:57:19;101474.81;;;17.57;100.00
7297;BME280;40758;54.038;11.684;2022-10-28T08:59:50;101479.56;;;17.72;100.00
7297;BME280;40758;54.038;11.684;2022-10-28T09:02:24;101472.59;;;17.70;100.00
7297;BME280;40758;54.038;11.684;2022-10-28T09:05:01;101461.38;;;17.91;100.00
7297;BME280;40758;54.038;11.684;2022-10-28T09:07:34;101469.25;;;18.63;98.20
7297;BME280;40758;54.038;11.684;2022-10-28T09:10:05;101463.63;;;19.65;93.96
7297;BME280;40758;54.038;11.684;2022-10-28T09:12:48;101456.25;;;20.63;87.62
7297;BME280;40758;54.038;11.684;2022-10-28T09:15:32;101442.72;;;20.77;82.71
7297;BME280;40758;54.038;11.684;2022-10-28T09:18:17;101442.25;;;21.35;79.80
7297;BME280;40758;54.038;11.684;2022-10-28T09:20:52;101436.66;;;20.59;79.48
7297;BME280;40758;54.038;11.684;2022-10-28T09:23:29;101424.97;;;21.12;78.32
7297;BME280;40758;54.038;11.684;2022-10-28T09:26:15;101418.38;;;22.21;75.44
7297;BME280;40758;54.038;11.684;2022-10-28T09:29:02;101411.91;;;21.99;73.13
7297;BME280;40758;54.038;11.684;2022-10-28T09:31:42;101411.09;;;22.13;73.26
7297;BME280;40758;54.038;11.684;2022-10-28T09:34:28;101421.34;;;21.51;73.22
7297;BME280;40758;54.038;11.684;2022-10-28T09:37:10;101411.25;;;21.97;73.08
7297;BME280;40758;54.038;11.684;2022-10-28T09:39:45;101414.03;;;22.26;72.25
7297;BME280;40758;54.038;11.684;2022-10-28T09:42:21;101411.00;;;21.61;73.02
7297;BME280;40758;54.038;11.684;2022-10-28T09:44:57;101410.56;;;21.49;74.13
7297;BME280;40758;54.038;11.684;2022-10-28T09:47:33;101413.72;;;21.15;74.60
7297;BME280;40758;54.038;11.684;2022-10-28T09:50:13;101410.25;;;20.90;75.09
7297;BME280;40758;54.038;11.684;2022-10-28T09:52:53;101407.94;;;21.02;74.82
7297;BME280;40758;54.038;11.684;2022-10-28T09:55:26;101406.34;;;21.47;74.11
7297;BME280;40758;54.038;11.684;2022-10-28T09:57:55;101402.22;;;22.26;73.50
7297;BME280;40758;54.038;11.684;2022-10-28T10:00:26;101395.22;;;21.71;71.05
7297;BME280;40758;54.038;11.684;2022-10-28T10:02:57;101393.59;;;23.38;69.59
7297;BME280;40758;54.038;11.684;2022-10-28T10:05:28;101388.31;;;23.79;65.94
7297;BME280;40758;54.038;11.684;2022-10-28T10:08:03;101381.91;;;23.29;64.87
7297;BME280;40758;54.038;11.684;2022-10-28T10:10:44;101378.16;;;22.80;66.27
7297;BME280;40758;54.038;11.684;2022-10-28T10:13:19;101382.41;;;22.24;66.55
7297;BME280;40758;54.038;11.684;2022-10-28T10:15:55;101387.44;;;21.97;67.83
7297;BME280;40758;54.038;11.684;2022-10-28T10:18:29;101391.81;;;22.65;67.14
7297;BME280;40758;54.038;11.684;2022-10-28T10:21:01;101371.81;;;22.79;65.93
7297;BME280;40758;54.038;11.684;2022-10-28T10:23:32;101387.88;;;22.24;66.92
7297;BME280;40758;54.038;11.684;2022-10-28T10:26:05;101367.41;;;23.14;66.21
7297;BME280;40758;54.038;11.684;2022-10-28T10:28:44;101371.72;;;23.23;65.45
7297;BME280;40758;54.038;11.684;2022-10-28T10:31:20;101365.00;;;23.26;65.87
7297;BME280;40758;54.038;11.684;2022-10-28T10:33:52;101367.13;;;22.73;66.36
7297;BME280;40758;54.038;11.684;2022-10-28T10:36:27;101348.00;;;22.65;65.69
7297;BME280;40758;54.038;11.684;2022-10-28T10:39:00;101349.38;;;22.40;65.57
7297;BME280;40758;54.038;11.684;2022-10-28T10:41:34;101348.94;;;23.02;66.20
7297;BME280;40758;54.038;11.684;2022-10-28T10:44:33;101342.88;;;23.98;64.50
7297;BME280;40758;54.038;11.684;2022-10-28T10:47:31;101337.44;;;24.39;62.04
7297;BME280;40758;54.038;11.684;2022-10-28T10:50:21;101322.19;;;24.02;61.29
7297;BME280;40758;54.038;11.684;2022-10-28T10:52:56;101311.69;;;23.77;62.13
7297;BME280;40758;54.038;11.684;2022-10-28T10:55:34;101321.34;;;24.29;61.46
7297;BME280;40758;54.038;11.684;2022-10-28T10:58:17;101309.38;;;23.53;61.35
7297;BME280;40758;54.038;11.684;2022-10-28T11:00:52;101313.22;;;22.30;62.96
7297;BME280;40758;54.038;11.684;2022-10-28T11:03:29;101319.34;;;22.97;63.69
7297;BME280;40758;54.038;11.684;2022-10-28T11:06:04;101317.84;;;22.44;64.54
7297;BME280;40758;54.038;11.684;2022-10-28T11:08:56;101313.94;;;23.04;63.94
7297;BME280;40758;54.038;11.684;2022-10-28T11:11:35;101303.22;;;22.87;63.47
7297;BME280;40758;54.038;11.684;2022-10-28T11:14:08;101313.13;;;22.52;64.51
7297;BME280;40758;54.038;11.684;2022-10-28T11:16:48;101302.91;;;23.18;63.41
7297;BME280;40758;54.038;11.684;2022-10-28T11:19:27;101296.97;;;22.93;63.94
7297;BME280;40758;54.038;11.684;2022-10-28T11:22:17;101295.69;;;23.32;62.89
7297;BME280;40758;54.038;11.684;2022-10-28T11:25:31;101284.28;;;23.35;62.44
7297;BME280;40758;54.038;11.684;2022-10-28T11:28:42;101290.03;;;23.61;61.47
7297;BME280;40758;54.038;11.684;2022-10-28T11:31:55;101291.38;;;23.02;62.32
7297;BME280;40758;54.038;11.684;2022-10-28T11:35:00;101306.03;;;22.58;64.81
7297;BME280;40758;54.038;11.684;2022-10-28T11:37:46;101296.44;;;23.05;63.84
7297;BME280;40758;54.038;11.684;2022-10-28T11:40:29;101297.22;;;22.77;63.74
7297;BME280;40758;54.038;11.684;2022-10-28T11:43:18;101293.44;;;23.42;63.82
7297;BME280;40758;54.038;11.684;2022-10-28T11:46:03;101281.59;;;24.18;61.31
7297;BME280;40758;54.038;11.684;2022-10-28T11:48:52;101268.94;;;24.24;60.51
7297;BME280;40758;54.038;11.684;2022-10-28T11:51:36;101264.13;;;23.98;59.88
7297;BME280;40758;54.038;11.684;2022-10-28T11:54:31;101269.41;;;24.34;60.56
7297;BME280;40758;54.038;11.684;2022-10-28T11:57:17;101268.09;;;24.24;59.37
7297;BME280;40758;54.038;11.684;2022-10-28T12:00:29;101279.88;;;24.17;60.07
7297;BME280;40758;54.038;11.684;2022-10-28T12:03:28;101266.63;;;23.93;60.32
7297;BME280;40758;54.038;11.684;2022-10-28T12:06:14;101265.78;;;23.37;60.83
7297;BME280;40758;54.038;11.684;2022-10-28T12:09:06;101274.00;;;23.16;62.00
7297;BME280;40758;54.038;11.684;2022-10-28T12:11:57;101268.75;;;23.42;61.70
7297;BME280;40758;54.038;11.684;2022-10-28T12:14:39;101258.16;;;23.60;61.41
7297;BME280;40758;54.038;11.684;2022-10-28T12:17:20;101271.50;;;23.21;63.05
7297;BME280;40758;54.038;11.684;2022-10-28T12:19:56;101272.06;;;23.59;63.22
7297;BME280;40758;54.038;11.684;2022-10-28T12:22:32;101274.88;;;23.65;62.43
7297;BME280;40758;54.038;11.684;2022-10-28T12:25:13;101270.00;;;23.61;62.09
7297;BME280;40758;54.038;11.684;2022-10-28T12:27:48;101267.97;;;23.27;62.55
7297;BME280;40758;54.038;11.684;2022-10-28T12:30:23;101266.03;;;23.21;63.32
7297;BME280;40758;54.038;11.684;2022-10-28T12:32:59;101273.63;;;23.19;63.51
7297;BME280;40758;54.038;11.684;2022-10-28T12:35:33;101263.63;;;23.32;62.94
7297;BME280;40758;54.038;11.684;2022-10-28T12:38:12;101269.69;;;23.28;63.20
7297;BME280;40758;54.038;11.684;2022-10-28T12:40:52;101276.34;;;23.19;63.32
7297;BME280;40758;54.038;11.684;2022-10-28T12:43:32;101260.66;;;23.34;62.60
7297;BME280;40758;54.038;11.684;2022-10-28T12:46:04;101270.78;;;22.91;64.13
7297;BME280;40758;54.038;11.684;2022-10-28T12:48:45;101264.28;;;22.92;63.44
7297;BME280;40758;54.038;11.684;2022-10-28T12:51:24;101268.84;;;22.85;64.06
7297;BME280;40758;54.038;11.684;2022-10-28T12:54:05;101262.56;;;22.55;65.08
7297;BME280;40758;54.038;11.684;2022-10-28T12:56:45;101263.53;;;22.47;65.38
7297;BME280;40758;54.038;11.684;2022-10-28T12:59:23;101275.03;;;22.57;65.73
7297;BME280;40758;54.038;11.684;2022-10-28T13:01:59;101262.28;;;23.01;65.21
7297;BME280;40758;54.038;11.684;2022-10-28T13:04:36;101262.84;;;22.75;65.45
7297;BME280;40758;54.038;11.684;2022-10-28T13:07:51;101267.44;;;22.89;65.71
7297;BME280;40758;54.038;11.684;2022-10-28T13:10:36;101266.16;;;23.34;64.56
7297;BME280;40758;54.038;11.684;2022-10-28T13:13:40;101262.88;;;23.45;63.50
7297;BME280;40758;54.038;11.684;2022-10-28T13:16:58;101254.81;;;23.16;63.82
7297;BME280;40758;54.038;11.684;2022-10-28T13:19:48;101259.19;;;23.31;63.81
7297;BME280;40758;54.038;11.684;2022-10-28T13:22:47;101252.50;;;23.62;63.75
7297;BME280;40758;54.038;11.684;2022-10-28T13:25:43;101240.25;;;23.64;63.81
7297;BME280;40758;54.038;11.684;2022-10-28T13:28:19;101232.78;;;23.79;62.77
7297;BME280;40758;54.038;11.684;2022-10-28T13:30:56;101241.56;;;23.68;62.28
7297;BME280;40758;54.038;11.684;2022-10-28T13:33:28;101234.31;;;23.33;62.74
7297;BME280;40758;54.038;11.684;2022-10-28T13:36:15;101246.25;;;23.25;63.42